createdAt,value
2017-11-30T00:00:21.116Z,3.21
2017-11-30T00:01:20.829Z,3.23
2017-11-30T00:02:21.079Z,3.18
2017-11-30T00:03:21.053Z,3.06
2017-11-30T00:04:21.047Z,3.05
2017-11-30T00:05:21.016Z,3.14
2017-11-30T00:06:21.027Z,3.13
2017-11-30T00:07:21.009Z,3.1
2017-11-30T00:08:20.987Z,3.05
2017-11-30T00:09:20.974Z,3.03
2017-11-30T00:10:20.695Z,3.05
2017-11-30T00:11:20.950Z,2.89
2017-11-30T00:12:20.919Z,2.95
2017-11-30T00:13:20.919Z,2.99
2017-11-30T00:14:20.903Z,2.96
2017-11-30T00:15:20.885Z,2.93
2017-11-30T00:16:20.891Z,2.87
2017-11-30T00:17:20.868Z,2.84
2017-11-30T00:18:20.852Z,2.85
2017-11-30T00:19:20.823Z,2.82
2017-11-30T00:20:20.819Z,2.72
2017-11-30T00:21:20.813Z,2.77
2017-11-30T00:22:20.788Z,2.75
2017-11-30T00:23:20.759Z,2.67
2017-11-30T00:24:20.761Z,2.61
2017-11-30T00:25:20.742Z,2.63
2017-11-30T00:26:20.717Z,2.63
2017-11-30T00:27:20.719Z,2.57
2017-11-30T00:28:20.706Z,2.57
2017-11-30T00:29:20.680Z,2.63
2017-11-30T00:30:20.664Z,2.54
2017-11-30T00:31:20.655Z,2.49
2017-11-30T00:32:20.648Z,2.52
2017-11-30T00:33:20.629Z,2.49
2017-11-30T00:34:20.599Z,2.39
2017-11-30T00:35:20.589Z,2.45
2017-11-30T00:36:20.581Z,2.39
2017-11-30T00:37:20.571Z,2.48
2017-11-30T00:38:20.548Z,2.45
2017-11-30T00:39:20.538Z,2.45
2017-11-30T00:40:20.523Z,2.36
2017-11-30T00:41:20.247Z,2.41
2017-11-30T00:42:20.509Z,2.38
2017-11-30T00:43:20.221Z,2.36
2017-11-30T00:44:20.455Z,2.35
2017-11-30T00:45:20.439Z,2.35
2017-11-30T00:46:20.434Z,2.34
2017-11-30T00:47:20.421Z,2.28
2017-11-30T00:48:20.400Z,2.31
2017-11-30T00:49:20.394Z,2.36
2017-11-30T00:50:20.370Z,2.38
2017-11-30T00:51:20.344Z,2.39
2017-11-30T00:52:20.351Z,2.35
2017-11-30T00:53:20.338Z,2.35
2017-11-30T00:54:20.310Z,2.25
2017-11-30T00:55:20.299Z,2.35
2017-11-30T00:56:20.283Z,2.46
2017-11-30T00:57:20.028Z,2.42
2017-11-30T00:58:20.272Z,2.36
2017-11-30T00:59:20.245Z,2.34
2017-11-30T01:00:20.224Z,2.35
2017-11-30T01:01:19.953Z,2.38
2017-11-30T01:02:19.929Z,2.42
2017-11-30T01:03:20.181Z,2.36
2017-11-30T01:04:20.167Z,2.38
2017-11-30T01:05:19.898Z,2.41
2017-11-30T01:06:20.135Z,2.38
2017-11-30T01:07:20.142Z,2.36
2017-11-30T01:08:20.121Z,2.38
2017-11-30T01:09:20.115Z,2.41
2017-11-30T01:10:20.076Z,2.3
2017-11-30T01:11:20.064Z,2.35
2017-11-30T01:12:20.039Z,2.38
2017-11-30T01:13:20.026Z,2.35
2017-11-30T01:14:20.031Z,2.35
2017-11-30T01:15:20.009Z,2.36
2017-11-30T01:16:20.009Z,2.34
2017-11-30T01:17:19.969Z,2.24
2017-11-30T01:18:19.954Z,2.35
2017-11-30T01:19:19.696Z,2.3
2017-11-30T01:20:19.923Z,2.28
2017-11-30T01:21:19.913Z,2.27
2017-11-30T01:22:19.905Z,2.21
2017-11-30T01:23:19.887Z,2.18
2017-11-30T01:24:19.865Z,2.2
2017-11-30T01:25:19.852Z,2.2
2017-11-30T01:26:19.833Z,2.16
2017-11-30T01:27:19.552Z,2.2
2017-11-30T01:28:19.802Z,2.18
2017-11-30T01:29:19.780Z,2.16
2017-11-30T01:30:19.771Z,2.24
2017-11-30T01:31:19.493Z,2.18
2017-11-30T01:32:19.746Z,2.1
2017-11-30T01:33:19.723Z,2.1
2017-11-30T01:34:19.927Z,2.12
2017-11-30T01:35:19.704Z,2.06
2017-11-30T01:36:19.678Z,2.05
2017-11-30T01:37:19.669Z,2.06
2017-11-30T01:38:19.644Z,2.12
2017-11-30T01:39:19.631Z,2.06
2017-11-30T01:40:19.630Z,2.07
2017-11-30T01:41:19.602Z,2.09
2017-11-30T01:42:19.606Z,2.16
2017-11-30T01:43:19.572Z,2.2
2017-11-30T01:44:19.549Z,2.09
2017-11-30T01:45:19.547Z,2.21
2017-11-30T01:46:19.521Z,2.21
2017-11-30T01:47:19.525Z,2.2
2017-11-30T01:48:19.486Z,2.23
2017-11-30T01:49:19.477Z,2.31
2017-11-30T01:50:19.465Z,2.34
2017-11-30T01:51:19.507Z,2.39
2017-11-30T01:52:19.479Z,2.38
2017-11-30T01:53:19.440Z,2.38
2017-11-30T01:54:19.402Z,2.45
2017-11-30T01:55:19.413Z,2.59
2017-11-30T01:56:19.378Z,2.61
2017-11-30T01:57:19.372Z,2.67
2017-11-30T01:58:19.369Z,2.69
2017-11-30T01:59:19.323Z,2.82
2017-11-30T02:00:19.336Z,2.85
2017-11-30T02:01:19.304Z,2.84
2017-11-30T02:02:19.284Z,2.92
2017-11-30T02:03:19.273Z,2.97
2017-11-30T02:04:19.265Z,3.1
2017-11-30T02:05:19.254Z,3.13
2017-11-30T02:06:19.246Z,3.11
2017-11-30T02:07:19.219Z,3.2
2017-11-30T02:08:19.210Z,3.15
2017-11-30T02:09:19.182Z,3.23
2017-11-30T02:10:19.170Z,3.29
2017-11-30T02:11:19.154Z,3.29
2017-11-30T02:12:19.138Z,3.26
2017-11-30T02:13:19.140Z,3.32
2017-11-30T02:14:19.107Z,3.36
2017-11-30T02:15:19.105Z,3.42
2017-11-30T02:16:19.084Z,3.48
2017-11-30T02:17:19.067Z,3.5
2017-11-30T02:18:19.060Z,3.5
2017-11-30T02:19:19.037Z,3.58
2017-11-30T02:20:19.016Z,3.66
2017-11-30T02:21:19.005Z,3.65
2017-11-30T02:22:19.011Z,3.68
2017-11-30T02:23:18.987Z,3.66
2017-11-30T02:24:18.970Z,3.76
2017-11-30T02:25:18.954Z,3.76
2017-11-30T02:26:18.944Z,3.79
2017-11-30T02:27:18.914Z,3.75
2017-11-30T02:28:18.916Z,3.86
2017-11-30T02:29:18.918Z,3.9
2017-11-30T02:30:18.881Z,4
2017-11-30T02:31:18.853Z,3.94
2017-11-30T02:32:18.658Z,3.97
2017-11-30T02:33:18.839Z,3.96
2017-11-30T02:34:18.864Z,4
2017-11-30T02:35:18.821Z,4.09
2017-11-30T02:36:18.789Z,4.06
2017-11-30T02:37:18.799Z,4.11
2017-11-30T02:38:18.771Z,4.12
2017-11-30T02:39:18.766Z,4.08
2017-11-30T02:40:18.745Z,4.15
2017-11-30T02:41:18.740Z,4.08
2017-11-30T02:42:18.711Z,3.97
2017-11-30T02:43:18.752Z,4.05
2017-11-30T02:44:18.694Z,3.98
2017-11-30T02:45:18.678Z,3.96
2017-11-30T02:46:18.700Z,3.91
2017-11-30T02:47:18.642Z,3.75
2017-11-30T02:48:18.365Z,3.83
2017-11-30T02:49:18.613Z,3.73
2017-11-30T02:50:18.602Z,3.75
2017-11-30T02:51:18.606Z,3.7
2017-11-30T02:52:18.581Z,3.69
2017-11-30T02:53:18.568Z,3.68
2017-11-30T02:54:18.276Z,3.69
2017-11-30T02:55:18.542Z,3.68
2017-11-30T02:56:18.262Z,3.68
2017-11-30T02:57:18.490Z,3.66
2017-11-30T02:58:18.488Z,3.66
2017-11-30T02:59:18.471Z,3.65
2017-11-30T03:00:18.452Z,3.61
2017-11-30T03:01:18.464Z,3.65
2017-11-30T03:02:18.431Z,3.68
2017-11-30T03:03:18.429Z,3.65
2017-11-30T03:04:18.414Z,3.66
2017-11-30T03:05:18.382Z,3.7
2017-11-30T03:06:18.377Z,3.72
2017-11-30T03:07:18.106Z,3.78
2017-11-30T03:08:18.362Z,3.76
2017-11-30T03:09:18.333Z,3.72
2017-11-30T03:10:18.318Z,3.75
2017-11-30T03:11:18.306Z,3.9
2017-11-30T03:12:18.284Z,3.84
2017-11-30T03:13:18.286Z,3.86
2017-11-30T03:14:18.261Z,3.84
2017-11-30T03:15:18.245Z,3.9
2017-11-30T03:16:18.233Z,3.91
2017-11-30T03:17:18.216Z,3.96
2017-11-30T03:18:18.197Z,3.9
2017-11-30T03:19:18.192Z,3.96
2017-11-30T03:20:18.179Z,4.05
2017-11-30T03:21:18.165Z,4.08
2017-11-30T03:22:18.163Z,4.05
2017-11-30T03:23:18.139Z,4.05
2017-11-30T03:24:18.128Z,4.14
2017-11-30T03:25:17.853Z,4.09
2017-11-30T03:26:17.836Z,4.08
2017-11-30T03:27:18.070Z,4.11
2017-11-30T03:28:18.071Z,4.05
2017-11-30T03:29:18.053Z,4.16
2017-11-30T03:30:18.050Z,4.05
2017-11-30T03:31:18.023Z,4.15
2017-11-30T03:32:18.020Z,4.12
2017-11-30T03:33:17.988Z,4.09
2017-11-30T03:34:17.987Z,4.14
2017-11-30T03:35:17.972Z,4.15
2017-11-30T03:36:17.961Z,4.16
2017-11-30T03:37:17.935Z,4.24
2017-11-30T03:38:17.925Z,4.23
2017-11-30T03:39:17.912Z,4.23
2017-11-30T03:40:17.900Z,4.27
2017-11-30T03:41:17.883Z,4.26
2017-11-30T03:42:17.610Z,4.23
2017-11-30T03:43:17.854Z,4.33
2017-11-30T03:44:17.843Z,4.34
2017-11-30T03:45:17.845Z,4.41
2017-11-30T03:46:17.824Z,4.4
2017-11-30T03:47:17.815Z,4.47
2017-11-30T03:48:17.790Z,4.45
2017-11-30T03:49:17.798Z,4.5
2017-11-30T03:50:17.491Z,4.47
2017-11-30T03:51:17.490Z,4.51
2017-11-30T03:52:17.740Z,4.47
2017-11-30T03:53:17.451Z,4.5
2017-11-30T03:54:17.709Z,4.52
2017-11-30T03:55:17.687Z,4.48
2017-11-30T03:56:17.413Z,4.47
2017-11-30T03:57:17.667Z,4.5
2017-11-30T03:58:17.652Z,4.5
2017-11-30T03:59:17.645Z,4.54
2017-11-30T04:00:17.368Z,4.51
2017-11-30T04:01:17.605Z,4.47
2017-11-30T04:02:17.598Z,4.5
2017-11-30T04:03:17.578Z,4.54
2017-11-30T04:04:17.567Z,4.51
2017-11-30T04:05:17.561Z,4.62
2017-11-30T04:06:17.545Z,4.6
2017-11-30T04:07:17.525Z,4.65
2017-11-30T04:08:17.516Z,4.62
2017-11-30T04:09:17.499Z,4.62
2017-11-30T04:10:17.492Z,4.7
2017-11-30T04:11:17.488Z,4.72
2017-11-30T04:12:17.472Z,4.85
2017-11-30T04:13:17.436Z,4.73
2017-11-30T04:14:17.422Z,4.69
2017-11-30T04:15:17.420Z,4.67
2017-11-30T04:16:17.405Z,4.8
2017-11-30T04:17:17.394Z,4.66
2017-11-30T04:18:17.366Z,4.72
2017-11-30T04:19:17.355Z,4.75
2017-11-30T04:20:17.356Z,4.67
2017-11-30T04:21:17.364Z,4.7
2017-11-30T04:22:17.329Z,4.73
2017-11-30T04:23:17.298Z,4.82
2017-11-30T04:24:17.306Z,4.72
2017-11-30T04:25:17.291Z,4.78
2017-11-30T04:26:17.271Z,4.73
2017-11-30T04:27:17.249Z,4.78
2017-11-30T04:28:17.261Z,4.69
2017-11-30T04:29:17.229Z,4.75
2017-11-30T04:30:17.206Z,4.66
2017-11-30T04:31:16.680Z,4.8
2017-11-30T04:32:17.223Z,4.85
2017-11-30T04:33:17.186Z,4.82
2017-11-30T04:34:17.156Z,4.73
2017-11-30T04:35:17.142Z,4.73
2017-11-30T04:36:17.141Z,4.85
2017-11-30T04:37:17.126Z,4.91
2017-11-30T04:38:17.114Z,4.91
2017-11-30T04:39:17.100Z,4.85
2017-11-30T04:40:17.084Z,4.77
2017-11-30T04:41:17.082Z,4.84
2017-11-30T04:42:17.077Z,4.73
2017-11-30T04:43:17.043Z,4.75
2017-11-30T04:44:17.024Z,4.82
2017-11-30T04:45:17.023Z,4.8
2017-11-30T04:46:16.998Z,4.82
2017-11-30T04:47:17.013Z,4.85
2017-11-30T04:48:16.980Z,4.85
2017-11-30T04:49:16.979Z,4.82
2017-11-30T04:50:16.949Z,4.82
2017-11-30T04:51:16.934Z,4.72
2017-11-30T04:52:16.935Z,4.85
2017-11-30T04:53:16.908Z,4.75
2017-11-30T04:54:16.893Z,4.86
2017-11-30T04:55:16.885Z,4.86
2017-11-30T04:56:16.870Z,4.73
2017-11-30T04:57:16.855Z,4.85
2017-11-30T04:58:16.831Z,4.88
2017-11-30T04:59:16.837Z,4.85
2017-11-30T05:00:16.812Z,4.91
2017-11-30T05:01:16.803Z,4.91
2017-11-30T05:02:16.803Z,4.89
2017-11-30T05:03:16.772Z,4.96
2017-11-30T05:04:16.764Z,4.97
2017-11-30T05:05:16.748Z,4.97
2017-11-30T05:06:16.732Z,5.02
2017-11-30T05:07:16.464Z,4.97
2017-11-30T05:08:16.724Z,5.06
2017-11-30T05:09:16.437Z,5
2017-11-30T05:10:16.694Z,5.04
2017-11-30T05:11:16.675Z,5.03
2017-11-30T05:12:16.660Z,5.13
2017-11-30T05:13:16.671Z,5.07
2017-11-30T05:14:16.629Z,5.12
2017-11-30T05:15:16.634Z,5.13
2017-11-30T05:16:16.602Z,5.3
2017-11-30T05:17:16.595Z,5.27
2017-11-30T05:18:16.561Z,5.18
2017-11-30T05:19:16.565Z,5.18
2017-11-30T05:20:16.552Z,5.31
2017-11-30T05:21:16.544Z,5.25
2017-11-30T05:22:16.266Z,5.18
2017-11-30T05:23:16.501Z,5.22
2017-11-30T05:24:16.528Z,5.22
2017-11-30T05:25:16.476Z,5.24
2017-11-30T05:26:16.214Z,5.17
2017-11-30T05:27:16.198Z,5.25
2017-11-30T05:28:16.446Z,5.22
2017-11-30T05:29:16.439Z,5.31
2017-11-30T05:30:16.156Z,5.28
2017-11-30T05:31:16.403Z,5.27
2017-11-30T05:32:16.128Z,5.17
2017-11-30T05:33:16.381Z,5.25
2017-11-30T05:34:16.349Z,5.18
2017-11-30T05:35:16.350Z,5.27
2017-11-30T05:36:16.344Z,5.15
2017-11-30T05:37:16.074Z,5.24
2017-11-30T05:38:16.318Z,5.17
2017-11-30T05:39:16.299Z,5.27
2017-11-30T05:40:16.025Z,5.27
2017-11-30T05:41:16.267Z,5.25
2017-11-30T05:42:16.256Z,5.24
2017-11-30T05:43:16.234Z,5.18
2017-11-30T05:44:16.244Z,5.3
2017-11-30T05:45:16.220Z,5.3
2017-11-30T05:46:15.943Z,5.31
2017-11-30T05:47:16.195Z,5.3
2017-11-30T05:48:15.917Z,5.22
2017-11-30T05:49:16.164Z,5.22
2017-11-30T05:50:16.155Z,5.3
2017-11-30T05:51:16.160Z,5.21
2017-11-30T05:52:16.126Z,5.31
2017-11-30T05:53:16.111Z,5.28
2017-11-30T05:54:15.850Z,5.3
2017-11-30T05:55:16.100Z,5.24
2017-11-30T05:56:16.081Z,5.28
2017-11-30T05:57:16.075Z,5.28
2017-11-30T05:58:16.034Z,5.28
2017-11-30T05:59:16.040Z,5.21
2017-11-30T06:00:16.011Z,5.27
2017-11-30T06:01:16.023Z,5.31
2017-11-30T06:02:15.985Z,5.22
2017-11-30T06:03:15.984Z,5.3
2017-11-30T06:04:15.957Z,5.22
2017-11-30T06:05:15.948Z,5.3
2017-11-30T06:06:15.972Z,5.35
2017-11-30T06:07:15.933Z,5.3
2017-11-30T06:08:15.913Z,5.42
2017-11-30T06:09:15.897Z,5.33
2017-11-30T06:10:15.909Z,5.36
2017-11-30T06:11:15.886Z,5.4
2017-11-30T06:12:15.876Z,5.38
2017-11-30T06:13:15.844Z,5.28
2017-11-30T06:14:15.842Z,5.33
2017-11-30T06:15:15.825Z,5.42
2017-11-30T06:16:15.823Z,5.3
2017-11-30T06:17:15.800Z,5.25
2017-11-30T06:18:15.780Z,5.33
2017-11-30T06:19:15.781Z,5.31
2017-11-30T06:20:15.499Z,5.28
2017-11-30T06:21:15.741Z,5.35
2017-11-30T06:22:15.724Z,5.3
2017-11-30T06:23:15.717Z,5.28
2017-11-30T06:24:15.440Z,5.3
2017-11-30T06:25:15.692Z,5.33
2017-11-30T06:26:15.414Z,5.27
2017-11-30T06:27:15.660Z,5.35
2017-11-30T06:28:15.658Z,5.31
2017-11-30T06:29:15.637Z,5.3
2017-11-30T06:30:15.634Z,5.3
2017-11-30T06:31:15.368Z,5.25
2017-11-30T06:32:15.608Z,5.27
2017-11-30T06:33:15.588Z,5.3
2017-11-30T06:34:15.317Z,5.28
2017-11-30T06:35:15.308Z,5.28
2017-11-30T06:36:15.283Z,5.27
2017-11-30T06:37:15.576Z,5.22
2017-11-30T06:38:15.525Z,5.22
2017-11-30T06:39:15.505Z,5.21
2017-11-30T06:40:15.487Z,5.18
2017-11-30T06:41:15.491Z,5.15
2017-11-30T06:42:15.466Z,5.1
2017-11-30T06:43:15.463Z,5.13
2017-11-30T06:44:15.445Z,5.07
2017-11-30T06:45:15.431Z,5.03
2017-11-30T06:46:15.422Z,5.03
2017-11-30T06:47:15.399Z,5
2017-11-30T06:48:15.401Z,4.94
2017-11-30T06:49:15.375Z,5
2017-11-30T06:50:15.357Z,4.89
2017-11-30T06:51:15.353Z,4.96
2017-11-30T06:52:15.368Z,4.91
2017-11-30T06:53:15.344Z,4.96
2017-11-30T06:54:15.347Z,4.94
2017-11-30T06:55:15.306Z,4.99
2017-11-30T06:56:15.300Z,4.99
2017-11-30T06:57:15.304Z,4.96
2017-11-30T06:58:15.284Z,4.94
2017-11-30T06:59:15.242Z,4.86
2017-11-30T07:00:15.238Z,4.88
2017-11-30T07:01:15.216Z,4.8
2017-11-30T07:02:15.202Z,4.89
2017-11-30T07:03:15.186Z,4.89
2017-11-30T07:04:15.172Z,4.89
2017-11-30T07:05:15.154Z,4.86
2017-11-30T07:06:15.162Z,4.94
2017-11-30T07:07:15.132Z,4.92
2017-11-30T07:08:15.142Z,4.89
2017-11-30T07:09:15.113Z,4.89
2017-11-30T07:10:15.323Z,4.91
2017-11-30T07:11:15.089Z,4.89
2017-11-30T07:12:14.825Z,4.89
2017-11-30T07:13:15.154Z,4.92
2017-11-30T07:14:15.107Z,4.96
2017-11-30T07:15:15.035Z,4.88
2017-11-30T07:16:15.015Z,4.99
2017-11-30T07:17:14.750Z,4.97
2017-11-30T07:18:15.004Z,4.96
2017-11-30T07:19:15.002Z,5.02
2017-11-30T07:20:14.712Z,5.03
2017-11-30T07:21:14.962Z,5.02
2017-11-30T07:22:14.946Z,5.03
2017-11-30T07:23:14.938Z,5.04
2017-11-30T07:24:14.926Z,5.1
2017-11-30T07:25:14.900Z,4.99
2017-11-30T07:26:14.889Z,5.04
2017-11-30T07:27:14.875Z,5
2017-11-30T07:28:14.878Z,5.03
2017-11-30T07:29:14.581Z,5.12
2017-11-30T07:30:14.578Z,5.02
2017-11-30T07:31:14.565Z,5.06
2017-11-30T07:32:15.123Z,5
2017-11-30T07:33:14.535Z,5.03
2017-11-30T07:34:14.596Z,5.02
2017-11-30T07:35:14.771Z,5
2017-11-30T07:36:14.755Z,5.07
2017-11-30T07:37:14.752Z,5.06
2017-11-30T07:38:14.738Z,5.1
2017-11-30T07:39:14.726Z,5.09
2017-11-30T07:40:14.710Z,5.13
2017-11-30T07:41:14.727Z,5.06
2017-11-30T07:42:14.676Z,5.09
2017-11-30T07:43:14.664Z,5.1
2017-11-30T07:44:14.655Z,5.22
2017-11-30T07:45:14.631Z,5.25
2017-11-30T07:46:14.649Z,5.22
2017-11-30T07:47:14.360Z,5.25
2017-11-30T07:48:14.592Z,5.27
2017-11-30T07:49:14.595Z,5.28
2017-11-30T07:50:14.604Z,5.3
2017-11-30T07:51:14.813Z,5.3
2017-11-30T07:52:14.281Z,5.27
2017-11-30T07:53:14.529Z,5.22
2017-11-30T07:54:14.526Z,5.21
2017-11-30T07:55:14.517Z,5.25
2017-11-30T07:56:14.482Z,5.33
2017-11-30T07:57:14.489Z,5.33
2017-11-30T07:58:14.477Z,5.3
2017-11-30T07:59:14.452Z,5.39
2017-11-30T08:00:14.445Z,5.36
2017-11-30T08:01:14.419Z,5.36
2017-11-30T08:02:14.157Z,5.48
2017-11-30T08:03:14.400Z,5.43
2017-11-30T08:04:14.126Z,5.46
2017-11-30T08:05:14.392Z,5.53
2017-11-30T08:06:14.107Z,5.56
2017-11-30T08:07:14.090Z,5.54
2017-11-30T08:08:14.349Z,5.48
2017-11-30T08:09:14.323Z,5.49
2017-11-30T08:10:14.330Z,5.54
2017-11-30T08:11:14.308Z,5.46
2017-11-30T08:12:14.333Z,5.45
2017-11-30T08:13:14.002Z,5.46
2017-11-30T08:14:14.261Z,5.48
2017-11-30T08:15:14.250Z,5.43
2017-11-30T08:16:14.236Z,5.46
2017-11-30T08:17:14.237Z,5.42
2017-11-30T08:18:14.212Z,5.36
2017-11-30T08:19:14.208Z,5.3
2017-11-30T08:20:14.192Z,5.31
2017-11-30T08:21:14.188Z,5.25
2017-11-30T08:22:14.162Z,5.25
2017-11-30T08:23:14.150Z,5.18
2017-11-30T08:24:14.143Z,5.13
2017-11-30T08:25:14.118Z,5.21
2017-11-30T08:26:14.107Z,5.12
2017-11-30T08:27:14.146Z,5.02
2017-11-30T08:28:13.816Z,5.04
2017-11-30T08:29:14.054Z,4.97
2017-11-30T08:30:14.060Z,4.92
2017-11-30T08:31:14.058Z,4.96
2017-11-30T08:32:14.065Z,4.91
2017-11-30T08:33:14.019Z,4.86
2017-11-30T08:34:14.019Z,4.89
2017-11-30T08:35:14.092Z,4.86
2017-11-30T08:36:13.986Z,4.78
2017-11-30T08:37:13.969Z,4.82
2017-11-30T08:38:13.985Z,4.75
2017-11-30T08:39:13.939Z,4.69
2017-11-30T08:40:13.942Z,4.66
2017-11-30T08:41:13.933Z,4.78
2017-11-30T08:42:13.904Z,4.73
2017-11-30T08:43:13.882Z,4.66
2017-11-30T08:44:13.888Z,4.65
2017-11-30T08:45:13.897Z,4.7
2017-11-30T08:46:13.865Z,4.66
2017-11-30T08:47:13.565Z,4.63
2017-11-30T08:48:13.290Z,4.63
2017-11-30T08:49:13.799Z,4.62
2017-11-30T08:50:13.815Z,4.55
2017-11-30T08:51:13.778Z,4.66
2017-11-30T08:52:13.770Z,4.59
2017-11-30T08:53:13.772Z,4.7
2017-11-30T08:54:13.761Z,4.69
2017-11-30T08:55:13.480Z,4.67
2017-11-30T08:56:13.467Z,4.69
2017-11-30T08:57:13.692Z,4.73
2017-11-30T08:58:13.685Z,4.82
2017-11-30T08:59:13.411Z,4.84
2017-11-30T09:00:13.433Z,4.78
2017-11-30T09:01:13.419Z,4.73
2017-11-30T09:02:13.654Z,4.86
2017-11-30T09:03:13.706Z,4.82
2017-11-30T09:04:13.664Z,4.84
2017-11-30T09:05:13.342Z,4.84
2017-11-30T09:06:13.637Z,4.75
2017-11-30T09:07:13.584Z,4.86
2017-11-30T09:08:13.611Z,4.8
2017-11-30T09:09:13.551Z,4.82
2017-11-30T09:10:13.584Z,4.88
2017-11-30T09:11:13.283Z,4.88
2017-11-30T09:12:13.515Z,4.86
2017-11-30T09:13:13.549Z,4.96
2017-11-30T09:14:13.542Z,4.96
2017-11-30T09:15:13.587Z,4.94
2017-11-30T09:16:13.799Z,5
2017-11-30T09:17:14.083Z,5.03
2017-11-30T09:18:13.516Z,5.09
2017-11-30T09:19:13.502Z,5.06
2017-11-30T09:20:13.373Z,5.17
2017-11-30T09:21:13.413Z,5.22
2017-11-30T09:22:13.612Z,5.2
2017-11-30T09:23:13.425Z,5.31
2017-11-30T09:24:13.386Z,5.33
2017-11-30T09:25:13.352Z,5.42
2017-11-30T09:26:13.380Z,5.54
2017-11-30T09:27:13.330Z,5.61
2017-11-30T09:28:13.065Z,5.64
2017-11-30T09:29:13.380Z,5.58
2017-11-30T09:30:13.300Z,5.64
2017-11-30T09:31:13.073Z,5.71
2017-11-30T09:32:13.266Z,5.74
2017-11-30T09:33:13.238Z,5.82
2017-11-30T09:34:13.241Z,5.86
2017-11-30T09:35:13.225Z,5.85
2017-11-30T09:36:12.946Z,5.96
2017-11-30T09:37:13.276Z,6.04
2017-11-30T09:38:13.243Z,6.08
2017-11-30T09:39:13.245Z,6.09
2017-11-30T09:40:13.158Z,6.17
2017-11-30T09:41:13.216Z,6.21
2017-11-30T09:42:13.140Z,6.25
2017-11-30T09:43:13.134Z,6.34
2017-11-30T09:44:13.132Z,6.41
2017-11-30T09:45:13.187Z,6.41
2017-11-30T09:46:13.138Z,6.48
2017-11-30T09:47:13.127Z,6.55
2017-11-30T09:48:13.086Z,6.55
2017-11-30T09:49:13.056Z,6.62
2017-11-30T09:50:13.075Z,6.61
2017-11-30T09:51:13.041Z,6.73
2017-11-30T09:52:13.038Z,6.77
2017-11-30T09:53:13.025Z,6.85
2017-11-30T09:54:13.010Z,6.87
2017-11-30T09:55:13.019Z,6.87
2017-11-30T09:56:12.708Z,6.92
2017-11-30T09:57:12.968Z,6.88
2017-11-30T09:58:13.187Z,6.85
2017-11-30T09:59:12.977Z,6.87
2017-11-30T10:00:12.950Z,6.87
2017-11-30T10:01:12.919Z,6.88
2017-11-30T10:02:12.898Z,6.89
2017-11-30T10:03:12.929Z,6.87
2017-11-30T10:04:12.911Z,6.84
2017-11-30T10:05:12.893Z,6.95
2017-11-30T10:06:12.829Z,6.99
2017-11-30T10:07:12.833Z,7.02
2017-11-30T10:08:12.826Z,7.12
2017-11-30T10:09:12.814Z,7.2
2017-11-30T10:10:12.931Z,7.06
2017-11-30T10:11:12.792Z,7.12
2017-11-30T10:12:12.778Z,7.16
2017-11-30T10:13:12.775Z,7.17
2017-11-30T10:14:12.824Z,7.21
2017-11-30T10:15:12.771Z,7.28
2017-11-30T10:16:12.732Z,7.31
2017-11-30T10:17:12.494Z,7.39
2017-11-30T10:18:12.716Z,7.49
2017-11-30T10:19:12.698Z,7.49
2017-11-30T10:20:12.712Z,7.63
2017-11-30T10:21:12.688Z,7.52
2017-11-30T10:22:12.667Z,7.63
2017-11-30T10:23:12.671Z,7.71
2017-11-30T10:24:12.657Z,7.79
2017-11-30T10:25:12.360Z,7.8
2017-11-30T10:26:12.641Z,7.87
2017-11-30T10:27:12.360Z,7.92
2017-11-30T10:28:12.621Z,8
2017-11-30T10:29:12.584Z,8.04
2017-11-30T10:30:12.568Z,8.02
2017-11-30T10:31:12.566Z,8.02
2017-11-30T10:32:12.599Z,8.02
2017-11-30T10:33:12.554Z,8.15
2017-11-30T10:34:12.571Z,7.98
2017-11-30T10:35:12.518Z,8.02
2017-11-30T10:36:12.522Z,8.04
2017-11-30T10:37:12.511Z,8.01
2017-11-30T10:38:12.253Z,7.97
2017-11-30T10:39:12.504Z,7.95
2017-11-30T10:40:12.473Z,7.92
2017-11-30T10:41:12.569Z,7.95
2017-11-30T10:42:12.450Z,7.79
2017-11-30T10:43:12.475Z,7.75
2017-11-30T10:44:12.457Z,7.72
2017-11-30T10:45:12.151Z,7.64
2017-11-30T10:46:12.409Z,7.6
2017-11-30T10:47:12.405Z,7.61
2017-11-30T10:48:12.415Z,7.46
2017-11-30T10:49:12.427Z,7.49
2017-11-30T10:50:12.379Z,7.46
2017-11-30T10:51:12.390Z,7.48
2017-11-30T10:52:12.409Z,7.43
2017-11-30T10:53:12.451Z,7.4
2017-11-30T10:54:12.709Z,7.45
2017-11-30T10:55:12.656Z,7.42
2017-11-30T10:56:12.865Z,7.45
2017-11-30T10:57:12.454Z,7.37
2017-11-30T10:58:12.366Z,7.4
2017-11-30T10:59:12.048Z,7.42
2017-11-30T11:00:12.388Z,7.5
2017-11-30T11:01:12.365Z,7.42
2017-11-30T11:02:12.358Z,7.46
2017-11-30T11:03:12.318Z,7.57
2017-11-30T11:04:11.786Z,7.5
2017-11-30T11:05:12.321Z,7.53
2017-11-30T11:06:12.333Z,7.49
2017-11-30T11:07:12.252Z,7.6
2017-11-30T11:08:12.273Z,7.53
2017-11-30T11:09:12.239Z,7.55
2017-11-30T11:10:12.162Z,7.55
2017-11-30T11:11:12.193Z,7.63
2017-11-30T11:12:12.211Z,7.52
2017-11-30T11:13:12.202Z,7.53
2017-11-30T11:14:12.173Z,7.58
2017-11-30T11:15:12.159Z,7.52
2017-11-30T11:16:12.120Z,7.58
2017-11-30T11:17:12.174Z,7.69
2017-11-30T11:18:12.077Z,7.67
2017-11-30T11:19:11.791Z,7.67
2017-11-30T11:20:11.788Z,7.8
2017-11-30T11:21:11.757Z,7.85
2017-11-30T11:22:12.090Z,7.75
2017-11-30T11:23:11.757Z,7.77
2017-11-30T11:24:11.782Z,7.8
2017-11-30T11:25:12.030Z,7.79
2017-11-30T11:26:11.701Z,7.75
2017-11-30T11:27:11.938Z,7.9
2017-11-30T11:28:12.038Z,7.9
2017-11-30T11:29:12.260Z,7.95
2017-11-30T11:30:11.995Z,7.98
2017-11-30T11:31:12.016Z,8.02
2017-11-30T11:32:11.997Z,8.12
2017-11-30T11:33:11.836Z,8.15
2017-11-30T11:34:11.629Z,8.11
2017-11-30T11:35:11.876Z,8.28
2017-11-30T11:36:11.860Z,8.28
2017-11-30T11:37:11.858Z,8.34
2017-11-30T11:38:11.855Z,8.36
2017-11-30T11:39:11.830Z,8.43
2017-11-30T11:40:11.837Z,8.4
2017-11-30T11:41:11.822Z,8.48
2017-11-30T11:42:11.563Z,8.5
2017-11-30T11:43:11.834Z,8.59
2017-11-30T11:44:11.826Z,8.65
2017-11-30T11:45:11.807Z,8.61
2017-11-30T11:46:11.847Z,8.76
2017-11-30T11:47:11.839Z,8.7
2017-11-30T11:48:11.527Z,8.71
2017-11-30T11:49:11.808Z,8.76
2017-11-30T11:50:11.488Z,8.56
2017-11-30T11:51:11.719Z,8.63
2017-11-30T11:52:11.449Z,8.52
2017-11-30T11:53:11.708Z,8.47
2017-11-30T11:54:11.676Z,8.52
2017-11-30T11:55:11.674Z,8.38
2017-11-30T11:56:11.714Z,8.34
2017-11-30T11:57:11.667Z,8.41
2017-11-30T11:58:11.639Z,8.23
2017-11-30T11:59:11.628Z,8
2017-11-30T12:00:11.610Z,7.95
2017-11-30T12:01:11.637Z,7.86
2017-11-30T12:02:11.325Z,7.8
2017-11-30T12:03:11.637Z,7.77
2017-11-30T12:04:11.291Z,7.72
2017-11-30T12:05:11.545Z,7.71
2017-11-30T12:06:11.286Z,7.75
2017-11-30T12:07:11.533Z,7.74
2017-11-30T12:08:11.518Z,7.68
2017-11-30T12:09:11.510Z,7.57
2017-11-30T12:10:11.497Z,7.57
2017-11-30T12:11:11.497Z,7.5
2017-11-30T12:12:11.486Z,7.64
2017-11-30T12:13:11.511Z,7.42
2017-11-30T12:14:11.449Z,7.49
2017-11-30T12:15:11.187Z,7.45
2017-11-30T12:16:11.434Z,7.43
2017-11-30T12:17:11.457Z,7.37
2017-11-30T12:18:11.451Z,7.34
2017-11-30T12:19:11.146Z,7.27
2017-11-30T12:20:11.418Z,7.27
2017-11-30T12:21:11.541Z,7.2
2017-11-30T12:22:11.221Z,7.15
2017-11-30T12:23:11.455Z,7.2
2017-11-30T12:24:11.124Z,7.17
2017-11-30T12:25:11.392Z,7.03
2017-11-30T12:26:11.670Z,6.99
2017-11-30T12:27:11.422Z,7.12
2017-11-30T12:28:11.409Z,7.07
2017-11-30T12:29:11.613Z,7.02
2017-11-30T12:30:11.388Z,6.99
2017-11-30T12:31:11.323Z,6.95
2017-11-30T12:32:11.340Z,7.05
2017-11-30T12:33:11.542Z,6.95
2017-11-30T12:34:11.040Z,6.87
2017-11-30T12:35:11.239Z,6.81
2017-11-30T12:36:10.950Z,6.87
2017-11-30T12:37:11.279Z,6.81
2017-11-30T12:38:11.292Z,6.79
2017-11-30T12:39:11.291Z,6.74
2017-11-30T12:40:11.278Z,6.71
2017-11-30T12:41:11.265Z,6.74
2017-11-30T12:42:11.256Z,6.66
2017-11-30T12:43:10.868Z,6.77
2017-11-30T12:44:11.108Z,6.69
2017-11-30T12:45:11.138Z,6.66
2017-11-30T12:46:11.175Z,6.66
2017-11-30T12:47:11.081Z,6.55
2017-11-30T12:48:11.130Z,6.58
2017-11-30T12:49:11.438Z,6.54
2017-11-30T12:50:10.802Z,6.55
2017-11-30T12:51:10.820Z,6.54
2017-11-30T12:52:11.120Z,6.56
2017-11-30T12:53:11.019Z,6.48
2017-11-30T12:54:11.015Z,6.55
2017-11-30T12:55:10.981Z,6.56
2017-11-30T12:56:10.732Z,6.38
2017-11-30T12:57:10.696Z,6.37
2017-11-30T12:58:10.933Z,6.34
2017-11-30T12:59:10.955Z,6.36
2017-11-30T13:00:10.931Z,6.41
2017-11-30T13:01:10.942Z,6.37
2017-11-30T13:02:10.890Z,6.34
2017-11-30T13:03:10.877Z,6.31
2017-11-30T13:04:10.908Z,6.31
2017-11-30T13:05:10.882Z,6.28
2017-11-30T13:06:10.600Z,6.28
2017-11-30T13:07:10.825Z,6.27
2017-11-30T13:08:10.826Z,6.27
2017-11-30T13:09:10.824Z,6.19
2017-11-30T13:10:10.585Z,6.25
2017-11-30T13:11:10.834Z,6.17
2017-11-30T13:12:10.820Z,6.25
2017-11-30T13:13:10.762Z,6.14
2017-11-30T13:14:10.486Z,6.15
2017-11-30T13:15:10.499Z,6.09
2017-11-30T13:16:10.483Z,6.15
2017-11-30T13:17:10.707Z,6.14
2017-11-30T13:18:10.694Z,6.04
2017-11-30T13:19:10.713Z,6.09
2017-11-30T13:20:10.680Z,6.03
2017-11-30T13:21:10.659Z,6.12
2017-11-30T13:22:10.645Z,6.15